sensor_id;sensor_type;location;lat;lon;timestamp;P1;durP1;ratioP1;P2;durP2;ratioP2
52952;SDS011;38815;55.932;-3.232;2022-09-03T00:01:49;12.63;;;2.70;;
52952;SDS011;38815;55.932;-3.232;2022-09-03T00:04:33;10.80;;;2.67;;
52952;SDS011;38815;55.932;-3.232;2022-09-03T00:07:11;10.75;;;2.65;;
52952;SDS011;38815;55.932;-3.232;2022-09-03T00:09:54;12.02;;;3.42;;
52952;SDS011;38815;55.932;-3.232;2022-09-03T00:12:27;9.82;;;2.60;;
52952;SDS011;38815;55.932;-3.232;2022-09-03T00:20:16;11.75;;;2.65;;
52952;SDS011;38815;55.932;-3.232;2022-09-03T00:22:50;10.63;;;2.65;;
52952;SDS011;38815;55.932;-3.232;2022-09-03T00:25:20;9.85;;;2.78;;
52952;SDS011;38815;55.932;-3.232;2022-09-03T00:27:52;11.27;;;2.47;;
52952;SDS011;38815;55.932;-3.232;2022-09-03T00:30:20;11.48;;;2.95;;
52952;SDS011;38815;55.932;-3.232;2022-09-03T00:33:02;10.38;;;2.40;;
52952;SDS011;38815;55.932;-3.232;2022-09-03T00:38:18;9.30;;;2.67;;
52952;SDS011;38815;55.932;-3.232;2022-09-03T00:43:52;9.52;;;2.53;;
52952;SDS011;38815;55.932;-3.232;2022-09-03T00:52:32;11.13;;;2.53;;
52952;SDS011;38815;55.932;-3.232;2022-09-03T00:54:59;10.75;;;2.92;;
52952;SDS011;38815;55.932;-3.232;2022-09-03T00:57:35;11.60;;;3.20;;
52952;SDS011;38815;55.932;-3.232;2022-09-03T01:00:25;8.75;;;2.47;;
52952;SDS011;38815;55.932;-3.232;2022-09-03T01:02:55;10.82;;;2.88;;
52952;SDS011;38815;55.932;-3.232;2022-09-03T01:05:28;12.00;;;2.67;;
52952;SDS011;38815;55.932;-3.232;2022-09-03T01:08:26;11.23;;;3.30;;
52952;SDS011;38815;55.932;-3.232;2022-09-03T01:16:31;11.43;;;2.55;;
52952;SDS011;38815;55.932;-3.232;2022-09-03T01:19:10;13.02;;;3.10;;
52952;SDS011;38815;55.932;-3.232;2022-09-03T01:32:11;9.50;;;2.85;;
52952;SDS011;38815;55.932;-3.232;2022-09-03T01:45:52;10.23;;;2.80;;
52952;SDS011;38815;55.932;-3.232;2022-09-03T01:51:42;10.35;;;3.08;;
52952;SDS011;38815;55.932;-3.232;2022-09-03T01:56:40;10.30;;;3.05;;
52952;SDS011;38815;55.932;-3.232;2022-09-03T01:59:14;7.50;;;2.80;;
52952;SDS011;38815;55.932;-3.232;2022-09-03T02:02:04;10.63;;;2.85;;
52952;SDS011;38815;55.932;-3.232;2022-09-03T02:04:42;8.45;;;2.13;;
52952;SDS011;38815;55.932;-3.232;2022-09-03T02:07:23;12.43;;;2.85;;
52952;SDS011;38815;55.932;-3.232;2022-09-03T02:09:53;10.55;;;2.38;;
52952;SDS011;38815;55.932;-3.232;2022-09-03T02:12:18;9.20;;;2.40;;
52952;SDS011;38815;55.932;-3.232;2022-09-03T02:14:44;8.05;;;2.47;;
52952;SDS011;38815;55.932;-3.232;2022-09-03T02:17:10;9.85;;;2.20;;
52952;SDS011;38815;55.932;-3.232;2022-09-03T02:19:36;8.77;;;2.42;;
52952;SDS011;38815;55.932;-3.232;2022-09-03T02:22:03;12.07;;;2.70;;
52952;SDS011;38815;55.932;-3.232;2022-09-03T02:24:29;10.32;;;2.67;;
52952;SDS011;38815;55.932;-3.232;2022-09-03T02:26:55;9.32;;;2.50;;
52952;SDS011;38815;55.932;-3.232;2022-09-03T02:29:21;11.75;;;2.53;;
52952;SDS011;38815;55.932;-3.232;2022-09-03T02:31:47;8.98;;;2.95;;
52952;SDS011;38815;55.932;-3.232;2022-09-03T02:34:13;7.22;;;2.22;;
52952;SDS011;38815;55.932;-3.232;2022-09-03T02:36:40;9.30;;;2.53;;
52952;SDS011;38815;55.932;-3.232;2022-09-03T02:39:07;9.20;;;2.50;;
52952;SDS011;38815;55.932;-3.232;2022-09-03T02:41:33;11.27;;;2.50;;
52952;SDS011;38815;55.932;-3.232;2022-09-03T02:44:07;10.38;;;3.05;;
52952;SDS011;38815;55.932;-3.232;2022-09-03T02:46:42;10.68;;;3.20;;
52952;SDS011;38815;55.932;-3.232;2022-09-03T02:49:11;10.98;;;3.22;;
52952;SDS011;38815;55.932;-3.232;2022-09-03T02:51:38;9.02;;;2.70;;
52952;SDS011;38815;55.932;-3.232;2022-09-03T02:54:06;9.52;;;3.15;;
52952;SDS011;38815;55.932;-3.232;2022-09-03T02:56:33;11.38;;;3.35;;
52952;SDS011;38815;55.932;-3.232;2022-09-03T02:58:59;10.07;;;2.78;;
52952;SDS011;38815;55.932;-3.232;2022-09-03T03:01:25;9.48;;;2.90;;
52952;SDS011;38815;55.932;-3.232;2022-09-03T03:03:51;13.57;;;3.65;;
52952;SDS011;38815;55.932;-3.232;2022-09-03T03:06:17;11.27;;;3.42;;
52952;SDS011;38815;55.932;-3.232;2022-09-03T03:08:48;11.63;;;3.03;;
52952;SDS011;38815;55.932;-3.232;2022-09-03T03:11:14;12.65;;;3.22;;
52952;SDS011;38815;55.932;-3.232;2022-09-03T03:13:42;13.43;;;3.28;;
52952;SDS011;38815;55.932;-3.232;2022-09-03T03:16:09;12.05;;;3.33;;
52952;SDS011;38815;55.932;-3.232;2022-09-03T03:18:34;10.98;;;3.33;;
52952;SDS011;38815;55.932;-3.232;2022-09-03T03:21:07;13.75;;;3.25;;
52952;SDS011;38815;55.932;-3.232;2022-09-03T03:23:34;11.77;;;2.88;;
52952;SDS011;38815;55.932;-3.232;2022-09-03T03:26:01;8.93;;;3.20;;
52952;SDS011;38815;55.932;-3.232;2022-09-03T03:28:28;13.88;;;3.97;;
52952;SDS011;38815;55.932;-3.232;2022-09-03T03:30:56;11.90;;;3.25;;
52952;SDS011;38815;55.932;-3.232;2022-09-03T03:33:22;11.82;;;3.42;;
52952;SDS011;38815;55.932;-3.232;2022-09-03T03:35:47;12.50;;;3.38;;
52952;SDS011;38815;55.932;-3.232;2022-09-03T03:38:13;11.02;;;3.63;;
52952;SDS011;38815;55.932;-3.232;2022-09-03T03:40:38;11.18;;;3.50;;
52952;SDS011;38815;55.932;-3.232;2022-09-03T03:43:04;9.32;;;3.30;;
52952;SDS011;38815;55.932;-3.232;2022-09-03T03:45:29;11.25;;;3.42;;
52952;SDS011;38815;55.932;-3.232;2022-09-03T03:47:57;13.85;;;3.28;;
52952;SDS011;38815;55.932;-3.232;2022-09-03T03:50:23;13.48;;;3.55;;
52952;SDS011;38815;55.932;-3.232;2022-09-03T03:52:49;13.13;;;3.88;;
52952;SDS011;38815;55.932;-3.232;2022-09-03T03:55:15;10.15;;;3.53;;
52952;SDS011;38815;55.932;-3.232;2022-09-03T03:57:40;13.57;;;3.58;;
52952;SDS011;38815;55.932;-3.232;2022-09-03T04:00:06;9.57;;;3.33;;
52952;SDS011;38815;55.932;-3.232;2022-09-03T04:02:32;12.63;;;3.90;;
52952;SDS011;38815;55.932;-3.232;2022-09-03T04:04:57;11.23;;;3.50;;
52952;SDS011;38815;55.932;-3.232;2022-09-03T04:07:23;11.13;;;3.47;;
52952;SDS011;38815;55.932;-3.232;2022-09-03T04:09:49;12.88;;;3.58;;
52952;SDS011;38815;55.932;-3.232;2022-09-03T04:12:14;10.20;;;3.30;;
52952;SDS011;38815;55.932;-3.232;2022-09-03T04:14:40;11.88;;;3.88;;
52952;SDS011;38815;55.932;-3.232;2022-09-03T04:17:06;12.45;;;4.18;;
52952;SDS011;38815;55.932;-3.232;2022-09-03T04:19:31;11.35;;;3.72;;
52952;SDS011;38815;55.932;-3.232;2022-09-03T04:21:57;12.88;;;3.72;;
52952;SDS011;38815;55.932;-3.232;2022-09-03T04:24:22;13.35;;;3.45;;
52952;SDS011;38815;55.932;-3.232;2022-09-03T04:26:47;17.42;;;3.50;;
52952;SDS011;38815;55.932;-3.232;2022-09-03T04:29:14;11.75;;;4.10;;
52952;SDS011;38815;55.932;-3.232;2022-09-03T04:31:41;11.15;;;3.13;;
52952;SDS011;38815;55.932;-3.232;2022-09-03T04:34:30;11.70;;;3.63;;
52952;SDS011;38815;55.932;-3.232;2022-09-03T04:36:55;10.15;;;3.20;;
52952;SDS011;38815;55.932;-3.232;2022-09-03T04:39:22;12.98;;;3.53;;
52952;SDS011;38815;55.932;-3.232;2022-09-03T04:41:48;13.35;;;3.55;;
52952;SDS011;38815;55.932;-3.232;2022-09-03T04:44:13;13.95;;;3.80;;
52952;SDS011;38815;55.932;-3.232;2022-09-03T04:46:39;10.43;;;3.45;;
52952;SDS011;38815;55.932;-3.232;2022-09-03T04:49:05;13.02;;;3.70;;
52952;SDS011;38815;55.932;-3.232;2022-09-03T04:51:33;13.00;;;3.80;;
52952;SDS011;38815;55.932;-3.232;2022-09-03T04:54:00;10.25;;;3.58;;
52952;SDS011;38815;55.932;-3.232;2022-09-03T04:56:27;12.27;;;3.85;;
52952;SDS011;38815;55.932;-3.232;2022-09-03T04:58:58;12.38;;;3.90;;
52952;SDS011;38815;55.932;-3.232;2022-09-03T05:01:29;13.30;;;3.92;;
52952;SDS011;38815;55.932;-3.232;2022-09-03T05:03:57;14.32;;;4.00;;
52952;SDS011;38815;55.932;-3.232;2022-09-03T05:06:24;15.43;;;4.10;;
52952;SDS011;38815;55.932;-3.232;2022-09-03T05:08:51;13.32;;;3.80;;
52952;SDS011;38815;55.932;-3.232;2022-09-03T05:11:18;10.38;;;3.78;;
52952;SDS011;38815;55.932;-3.232;2022-09-03T05:13:47;14.30;;;3.53;;
52952;SDS011;38815;55.932;-3.232;2022-09-03T05:16:18;14.25;;;3.80;;
52952;SDS011;38815;55.932;-3.232;2022-09-03T05:18:44;15.45;;;4.10;;
52952;SDS011;38815;55.932;-3.232;2022-09-03T05:21:13;15.48;;;3.92;;
52952;SDS011;38815;55.932;-3.232;2022-09-03T05:23:40;12.98;;;4.00;;
52952;SDS011;38815;55.932;-3.232;2022-09-03T05:26:10;10.07;;;3.50;;
52952;SDS011;38815;55.932;-3.232;2022-09-03T05:28:38;11.85;;;3.85;;
52952;SDS011;38815;55.932;-3.232;2022-09-03T05:31:15;14.82;;;4.13;;
52952;SDS011;38815;55.932;-3.232;2022-09-03T05:33:46;12.05;;;3.88;;
52952;SDS011;38815;55.932;-3.232;2022-09-03T05:36:16;12.57;;;3.40;;
52952;SDS011;38815;55.932;-3.232;2022-09-03T05:38:44;14.80;;;4.22;;
52952;SDS011;38815;55.932;-3.232;2022-09-03T05:41:12;17.58;;;4.03;;
52952;SDS011;38815;55.932;-3.232;2022-09-03T05:43:39;13.30;;;3.97;;
52952;SDS011;38815;55.932;-3.232;2022-09-03T05:46:06;14.18;;;3.60;;
52952;SDS011;38815;55.932;-3.232;2022-09-03T05:48:33;13.73;;;4.20;;
52952;SDS011;38815;55.932;-3.232;2022-09-03T05:51:01;11.80;;;3.90;;
52952;SDS011;38815;55.932;-3.232;2022-09-03T05:53:28;12.63;;;3.50;;
52952;SDS011;38815;55.932;-3.232;2022-09-03T05:56:00;12.35;;;4.10;;
52952;SDS011;38815;55.932;-3.232;2022-09-03T05:58:30;15.68;;;4.30;;
52952;SDS011;38815;55.932;-3.232;2022-09-03T06:00:59;13.35;;;3.80;;
52952;SDS011;38815;55.932;-3.232;2022-09-03T06:03:33;11.02;;;3.88;;
52952;SDS011;38815;55.932;-3.232;2022-09-03T06:05:59;12.95;;;4.18;;
52952;SDS011;38815;55.932;-3.232;2022-09-03T06:08:24;16.70;;;4.07;;
52952;SDS011;38815;55.932;-3.232;2022-09-03T06:10:50;13.63;;;3.95;;
52952;SDS011;38815;55.932;-3.232;2022-09-03T06:13:22;14.45;;;3.97;;
52952;SDS011;38815;55.932;-3.232;2022-09-03T06:15:48;10.52;;;3.42;;
52952;SDS011;38815;55.932;-3.232;2022-09-03T06:18:13;18.15;;;4.10;;
52952;SDS011;38815;55.932;-3.232;2022-09-03T06:20:38;12.35;;;4.18;;
52952;SDS011;38815;55.932;-3.232;2022-09-03T06:23:04;13.48;;;4.05;;
52952;SDS011;38815;55.932;-3.232;2022-09-03T06:25:29;12.10;;;3.65;;
52952;SDS011;38815;55.932;-3.232;2022-09-03T06:27:55;15.10;;;4.05;;
52952;SDS011;38815;55.932;-3.232;2022-09-03T06:30:21;14.75;;;4.45;;
52952;SDS011;38815;55.932;-3.232;2022-09-03T06:32:48;12.40;;;3.75;;
52952;SDS011;38815;55.932;-3.232;2022-09-03T06:35:14;11.27;;;3.60;;
52952;SDS011;38815;55.932;-3.232;2022-09-03T06:37:40;12.98;;;3.83;;
52952;SDS011;38815;55.932;-3.232;2022-09-03T06:40:07;10.80;;;3.60;;
52952;SDS011;38815;55.932;-3.232;2022-09-03T06:42:39;13.95;;;3.80;;
52952;SDS011;38815;55.932;-3.232;2022-09-03T06:45:06;10.02;;;3.13;;
52952;SDS011;38815;55.932;-3.232;2022-09-03T06:47:33;12.68;;;3.58;;
52952;SDS011;38815;55.932;-3.232;2022-09-03T06:49:59;17.25;;;3.85;;
52952;SDS011;38815;55.932;-3.232;2022-09-03T06:52:26;15.35;;;3.85;;
52952;SDS011;38815;55.932;-3.232;2022-09-03T06:54:52;12.20;;;3.33;;
52952;SDS011;38815;55.932;-3.232;2022-09-03T06:57:17;12.15;;;3.60;;
52952;SDS011;38815;55.932;-3.232;2022-09-03T06:59:43;12.63;;;3.40;;
52952;SDS011;38815;55.932;-3.232;2022-09-03T07:02:08;11.70;;;3.38;;
52952;SDS011;38815;55.932;-3.232;2022-09-03T07:04:34;12.50;;;3.13;;
52952;SDS011;38815;55.932;-3.232;2022-09-03T07:07:00;14.73;;;3.75;;
52952;SDS011;38815;55.932;-3.232;2022-09-03T07:09:26;16.10;;;3.55;;
52952;SDS011;38815;55.932;-3.232;2022-09-03T07:11:52;15.90;;;4.05;;
52952;SDS011;38815;55.932;-3.232;2022-09-03T07:14:18;15.10;;;3.60;;
52952;SDS011;38815;55.932;-3.232;2022-09-03T07:16:45;14.15;;;3.55;;
52952;SDS011;38815;55.932;-3.232;2022-09-03T07:19:12;12.77;;;3.20;;
52952;SDS011;38815;55.932;-3.232;2022-09-03T07:21:37;10.88;;;3.25;;
52952;SDS011;38815;55.932;-3.232;2022-09-03T07:24:05;14.02;;;3.13;;
52952;SDS011;38815;55.932;-3.232;2022-09-03T07:26:32;13.27;;;3.00;;
52952;SDS011;38815;55.932;-3.232;2022-09-03T07:28:59;14.90;;;3.42;;
52952;SDS011;38815;55.932;-3.232;2022-09-03T07:31:29;13.93;;;3.55;;
52952;SDS011;38815;55.932;-3.232;2022-09-03T07:34:05;14.02;;;3.22;;
52952;SDS011;38815;55.932;-3.232;2022-09-03T07:36:37;12.93;;;3.58;;
52952;SDS011;38815;55.932;-3.232;2022-09-03T07:39:05;13.85;;;3.67;;
52952;SDS011;38815;55.932;-3.232;2022-09-03T07:41:31;13.80;;;3.38;;
52952;SDS011;38815;55.932;-3.232;2022-09-03T07:43:57;12.68;;;3.05;;
52952;SDS011;38815;55.932;-3.232;2022-09-03T07:46:29;9.00;;;2.80;;
52952;SDS011;38815;55.932;-3.232;2022-09-03T07:48:58;11.30;;;3.10;;
52952;SDS011;38815;55.932;-3.232;2022-09-03T07:51:27;12.48;;;2.90;;
52952;SDS011;38815;55.932;-3.232;2022-09-03T07:53:57;13.57;;;3.30;;
52952;SDS011;38815;55.932;-3.232;2022-09-03T07:56:24;16.42;;;3.55;;
52952;SDS011;38815;55.932;-3.232;2022-09-03T07:58:51;10.50;;;3.10;;
52952;SDS011;38815;55.932;-3.232;2022-09-03T08:01:18;17.00;;;3.47;;
52952;SDS011;38815;55.932;-3.232;2022-09-03T08:03:45;17.15;;;3.53;;
52952;SDS011;38815;55.932;-3.232;2022-09-03T08:06:13;12.10;;;3.03;;
52952;SDS011;38815;55.932;-3.232;2022-09-03T08:08:40;10.38;;;2.83;;
52952;SDS011;38815;55.932;-3.232;2022-09-03T08:11:15;12.40;;;3.58;;
52952;SDS011;38815;55.932;-3.232;2022-09-03T08:13:44;12.15;;;3.20;;
52952;SDS011;38815;55.932;-3.232;2022-09-03T08:16:12;9.82;;;3.03;;
52952;SDS011;38815;55.932;-3.232;2022-09-03T08:18:39;13.93;;;3.10;;
52952;SDS011;38815;55.932;-3.232;2022-09-03T08:21:05;11.85;;;3.50;;
52952;SDS011;38815;55.932;-3.232;2022-09-03T08:23:39;11.45;;;3.10;;
52952;SDS011;38815;55.932;-3.232;2022-09-03T08:26:06;14.02;;;3.22;;
52952;SDS011;38815;55.932;-3.232;2022-09-03T08:28:32;15.80;;;3.33;;
52952;SDS011;38815;55.932;-3.232;2022-09-03T08:31:19;12.18;;;2.88;;
52952;SDS011;38815;55.932;-3.232;2022-09-03T08:33:46;13.65;;;3.10;;
52952;SDS011;38815;55.932;-3.232;2022-09-03T08:36:14;12.82;;;3.30;;
52952;SDS011;38815;55.932;-3.232;2022-09-03T08:38:42;15.55;;;3.60;;
52952;SDS011;38815;55.932;-3.232;2022-09-03T08:41:13;11.35;;;2.83;;
52952;SDS011;38815;55.932;-3.232;2022-09-03T08:46:54;11.32;;;3.13;;
52952;SDS011;38815;55.932;-3.232;2022-09-03T08:49:34;13.68;;;3.50;;
52952;SDS011;38815;55.932;-3.232;2022-09-03T08:52:16;16.25;;;3.50;;
52952;SDS011;38815;55.932;-3.232;2022-09-03T08:54:47;12.57;;;3.35;;
52952;SDS011;38815;55.932;-3.232;2022-09-03T08:57:15;13.65;;;3.10;;
52952;SDS011;38815;55.932;-3.232;2022-09-03T08:59:43;12.00;;;3.05;;
52952;SDS011;38815;55.932;-3.232;2022-09-03T09:02:16;13.30;;;2.85;;
52952;SDS011;38815;55.932;-3.232;2022-09-03T09:05:04;13.52;;;3.20;;
52952;SDS011;38815;55.932;-3.232;2022-09-03T09:10:46;12.07;;;2.90;;
52952;SDS011;38815;55.932;-3.232;2022-09-03T09:21:01;12.55;;;3.13;;
52952;SDS011;38815;55.932;-3.232;2022-09-03T09:23:46;11.23;;;3.08;;
52952;SDS011;38815;55.932;-3.232;2022-09-03T09:26:13;11.82;;;2.78;;
52952;SDS011;38815;55.932;-3.232;2022-09-03T09:28:42;11.88;;;3.22;;
52952;SDS011;38815;55.932;-3.232;2022-09-03T09:31:16;13.23;;;3.20;;
52952;SDS011;38815;55.932;-3.232;2022-09-03T09:33:43;12.02;;;3.03;;
52952;SDS011;38815;55.932;-3.232;2022-09-03T09:36:10;14.30;;;3.08;;
52952;SDS011;38815;55.932;-3.232;2022-09-03T09:38:39;14.35;;;3.78;;
52952;SDS011;38815;55.932;-3.232;2022-09-03T09:41:15;14.70;;;3.28;;
52952;SDS011;38815;55.932;-3.232;2022-09-03T09:43:43;13.63;;;3.25;;
52952;SDS011;38815;55.932;-3.232;2022-09-03T09:47:00;14.68;;;3.55;;
52952;SDS011;38815;55.932;-3.232;2022-09-03T09:49:06;19.25;;;3.85;;
52952;SDS011;38815;55.932;-3.232;2022-09-03T09:51:58;15.75;;;3.50;;
52952;SDS011;38815;55.932;-3.232;2022-09-03T09:54:25;13.20;;;3.35;;
52952;SDS011;38815;55.932;-3.232;2022-09-03T09:56:59;14.85;;;3.17;;
52952;SDS011;38815;55.932;-3.232;2022-09-03T09:59:26;13.50;;;3.47;;
52952;SDS011;38815;55.932;-3.232;2022-09-03T10:02:01;12.75;;;3.38;;
52952;SDS011;38815;55.932;-3.232;2022-09-03T10:04:30;14.82;;;3.45;;
52952;SDS011;38815;55.932;-3.232;2022-09-03T10:07:04;10.43;;;2.92;;
52952;SDS011;38815;55.932;-3.232;2022-09-03T10:15:44;11.85;;;3.10;;
52952;SDS011;38815;55.932;-3.232;2022-09-03T10:18:17;12.38;;;2.90;;
52952;SDS011;38815;55.932;-3.232;2022-09-03T10:20:57;11.13;;;3.03;;
52952;SDS011;38815;55.932;-3.232;2022-09-03T10:23:29;11.50;;;2.90;;
52952;SDS011;38815;55.932;-3.232;2022-09-03T10:34:09;13.63;;;2.95;;
52952;SDS011;38815;55.932;-3.232;2022-09-03T10:39:22;10.23;;;3.17;;
52952;SDS011;38815;55.932;-3.232;2022-09-03T10:50:51;11.23;;;2.58;;
52952;SDS011;38815;55.932;-3.232;2022-09-03T10:56:06;18.42;;;3.17;;
52952;SDS011;38815;55.932;-3.232;2022-09-03T11:02:04;10.43;;;2.47;;
52952;SDS011;38815;55.932;-3.232;2022-09-03T11:04:50;9.18;;;2.67;;
52952;SDS011;38815;55.932;-3.232;2022-09-03T11:07:45;10.35;;;3.00;;
52952;SDS011;38815;55.932;-3.232;2022-09-03T11:12:47;9.90;;;2.78;;
52952;SDS011;38815;55.932;-3.232;2022-09-03T11:17:51;12.50;;;2.60;;
52952;SDS011;38815;55.932;-3.232;2022-09-03T11:20:23;15.23;;;2.67;;
52952;SDS011;38815;55.932;-3.232;2022-09-03T11:22:51;11.80;;;2.78;;
52952;SDS011;38815;55.932;-3.232;2022-09-03T11:25:21;10.23;;;2.65;;
52952;SDS011;38815;55.932;-3.232;2022-09-03T11:36:05;8.70;;;2.75;;
52952;SDS011;38815;55.932;-3.232;2022-09-03T11:38:31;9.48;;;2.78;;
52952;SDS011;38815;55.932;-3.232;2022-09-03T11:41:09;8.02;;;2.60;;
52952;SDS011;38815;55.932;-3.232;2022-09-03T11:43:41;5.68;;;2.10;;
52952;SDS011;38815;55.932;-3.232;2022-09-03T11:48:55;9.40;;;2.58;;
52952;SDS011;38815;55.932;-3.232;2022-09-03T11:51:34;10.50;;;2.67;;
52952;SDS011;38815;55.932;-3.232;2022-09-03T11:54:06;8.57;;;2.45;;
52952;SDS011;38815;55.932;-3.232;2022-09-03T11:56:49;8.48;;;2.45;;
52952;SDS011;38815;55.932;-3.232;2022-09-03T11:59:27;9.40;;;2.78;;
52952;SDS011;38815;55.932;-3.232;2022-09-03T12:01:57;7.97;;;2.70;;
52952;SDS011;38815;55.932;-3.232;2022-09-03T12:12:58;12.43;;;2.63;;
52952;SDS011;38815;55.932;-3.232;2022-09-03T12:18:22;6.28;;;2.00;;
52952;SDS011;38815;55.932;-3.232;2022-09-03T12:23:43;7.80;;;2.50;;
52952;SDS011;38815;55.932;-3.232;2022-09-03T12:26:15;11.18;;;2.55;;
52952;SDS011;38815;55.932;-3.232;2022-09-03T12:28:43;10.25;;;2.40;;
52952;SDS011;38815;55.932;-3.232;2022-09-03T12:36:50;7.57;;;2.67;;
52952;SDS011;38815;55.932;-3.232;2022-09-03T12:39:21;13.48;;;3.05;;
52952;SDS011;38815;55.932;-3.232;2022-09-03T12:42:10;13.27;;;3.05;;
52952;SDS011;38815;55.932;-3.232;2022-09-03T12:47:14;10.38;;;2.88;;
52952;SDS011;38815;55.932;-3.232;2022-09-03T12:49:44;10.15;;;2.42;;
52952;SDS011;38815;55.932;-3.232;2022-09-03T12:52:15;9.35;;;2.30;;
52952;SDS011;38815;55.932;-3.232;2022-09-03T12:54:45;9.20;;;2.38;;
52952;SDS011;38815;55.932;-3.232;2022-09-03T12:57:16;7.95;;;2.30;;
52952;SDS011;38815;55.932;-3.232;2022-09-03T12:59:46;11.25;;;2.40;;
52952;SDS011;38815;55.932;-3.232;2022-09-03T13:02:17;13.13;;;2.70;;
52952;SDS011;38815;55.932;-3.232;2022-09-03T13:04:50;13.55;;;3.03;;
52952;SDS011;38815;55.932;-3.232;2022-09-03T13:07:24;12.98;;;3.08;;
52952;SDS011;38815;55.932;-3.232;2022-09-03T13:10:02;11.93;;;2.80;;
52952;SDS011;38815;55.932;-3.232;2022-09-03T13:12:41;10.38;;;2.35;;
52952;SDS011;38815;55.932;-3.232;2022-09-03T13:15:09;11.07;;;2.42;;
52952;SDS011;38815;55.932;-3.232;2022-09-03T13:21:28;15.32;;;2.88;;
52952;SDS011;38815;55.932;-3.232;2022-09-03T13:23:54;12.48;;;2.70;;
52952;SDS011;38815;55.932;-3.232;2022-09-03T13:31:34;10.07;;;2.65;;
52952;SDS011;38815;55.932;-3.232;2022-09-03T13:34:07;10.73;;;2.63;;
52952;SDS011;38815;55.932;-3.232;2022-09-03T13:36:52;13.88;;;3.20;;
52952;SDS011;38815;55.932;-3.232;2022-09-03T13:39:27;11.05;;;2.20;;
52952;SDS011;38815;55.932;-3.232;2022-09-03T13:44:51;9.15;;;2.33;;
52952;SDS011;38815;55.932;-3.232;2022-09-03T13:50:41;10.60;;;2.60;;
52952;SDS011;38815;55.932;-3.232;2022-09-03T13:56:13;16.20;;;2.83;;
52952;SDS011;38815;55.932;-3.232;2022-09-03T13:59:28;9.07;;;2.40;;
52952;SDS011;38815;55.932;-3.232;2022-09-03T14:04:00;11.10;;;2.60;;
52952;SDS011;38815;55.932;-3.232;2022-09-03T14:12:16;11.27;;;2.63;;
52952;SDS011;38815;55.932;-3.232;2022-09-03T14:20:21;14.33;;;3.27;;
52952;SDS011;38815;55.932;-3.232;2022-09-03T14:25:17;11.07;;;2.15;;
52952;SDS011;38815;55.932;-3.232;2022-09-03T14:27:44;10.07;;;2.53;;
52952;SDS011;38815;55.932;-3.232;2022-09-03T14:30:17;13.10;;;2.53;;
52952;SDS011;38815;55.932;-3.232;2022-09-03T14:35:48;11.45;;;2.40;;
52952;SDS011;38815;55.932;-3.232;2022-09-03T15:10:45;12.82;;;2.60;;
52952;SDS011;38815;55.932;-3.232;2022-09-03T15:13:16;10.18;;;2.45;;
52952;SDS011;38815;55.932;-3.232;2022-09-03T15:21:28;11.15;;;2.10;;
52952;SDS011;38815;55.932;-3.232;2022-09-03T15:29:47;11.43;;;2.58;;
52952;SDS011;38815;55.932;-3.232;2022-09-03T15:32:37;12.98;;;2.63;;
52952;SDS011;38815;55.932;-3.232;2022-09-03T15:35:08;13.50;;;2.35;;
52952;SDS011;38815;55.932;-3.232;2022-09-03T15:37:53;11.68;;;2.58;;
52952;SDS011;38815;55.932;-3.232;2022-09-03T15:40:34;13.52;;;2.67;;
52952;SDS011;38815;55.932;-3.232;2022-09-03T15:43:04;12.52;;;2.30;;
52952;SDS011;38815;55.932;-3.232;2022-09-03T15:45:35;8.88;;;2.40;;
52952;SDS011;38815;55.932;-3.232;2022-09-03T15:48:16;7.70;;;2.35;;
52952;SDS011;38815;55.932;-3.232;2022-09-03T15:57:02;10.35;;;2.13;;
52952;SDS011;38815;55.932;-3.232;2022-09-03T16:10:14;12.57;;;2.67;;
52952;SDS011;38815;55.932;-3.232;2022-09-03T16:12:51;10.88;;;2.70;;
52952;SDS011;38815;55.932;-3.232;2022-09-03T16:15:28;11.40;;;2.58;;
52952;SDS011;38815;55.932;-3.232;2022-09-03T16:21:02;11.75;;;3.00;;
52952;SDS011;38815;55.932;-3.232;2022-09-03T16:23:45;13.52;;;2.80;;
52952;SDS011;38815;55.932;-3.232;2022-09-03T16:26:36;10.35;;;2.85;;
52952;SDS011;38815;55.932;-3.232;2022-09-03T16:29:10;11.05;;;2.55;;
52952;SDS011;38815;55.932;-3.232;2022-09-03T16:42:31;11.07;;;2.72;;
52952;SDS011;38815;55.932;-3.232;2022-09-03T16:48:11;10.93;;;3.03;;
52952;SDS011;38815;55.932;-3.232;2022-09-03T17:10:31;14.02;;;3.53;;
52952;SDS011;38815;55.932;-3.232;2022-09-03T17:18:49;13.50;;;3.90;;
52952;SDS011;38815;55.932;-3.232;2022-09-03T17:32:18;14.75;;;3.53;;
52952;SDS011;38815;55.932;-3.232;2022-09-03T17:35:05;16.65;;;3.42;;
52952;SDS011;38815;55.932;-3.232;2022-09-03T17:38:12;12.77;;;3.47;;
52952;SDS011;38815;55.932;-3.232;2022-09-03T17:46:32;12.45;;;3.33;;
52952;SDS011;38815;55.932;-3.232;2022-09-03T17:49:19;15.07;;;3.67;;
52952;SDS011;38815;55.932;-3.232;2022-09-03T17:52:04;14.40;;;3.95;;
52952;SDS011;38815;55.932;-3.232;2022-09-03T17:54:41;19.50;;;3.78;;
52952;SDS011;38815;55.932;-3.232;2022-09-03T17:57:14;12.75;;;3.35;;
52952;SDS011;38815;55.932;-3.232;2022-09-03T17:59:51;13.55;;;3.45;;
52952;SDS011;38815;55.932;-3.232;2022-09-03T18:04:59;13.30;;;3.40;;
52952;SDS011;38815;55.932;-3.232;2022-09-03T18:13:02;15.02;;;4.03;;
52952;SDS011;38815;55.932;-3.232;2022-09-03T18:18:28;17.80;;;4.43;;
52952;SDS011;38815;55.932;-3.232;2022-09-03T18:20:56;15.48;;;4.13;;
52952;SDS011;38815;55.932;-3.232;2022-09-03T18:24:05;12.02;;;3.53;;
52952;SDS011;38815;55.932;-3.232;2022-09-03T18:27:17;15.00;;;3.83;;
52952;SDS011;38815;55.932;-3.232;2022-09-03T18:30:10;15.38;;;3.58;;
52952;SDS011;38815;55.932;-3.232;2022-09-03T18:32:57;16.02;;;3.92;;
52952;SDS011;38815;55.932;-3.232;2022-09-03T18:35:42;12.75;;;3.92;;
52952;SDS011;38815;55.932;-3.232;2022-09-03T18:38:31;16.52;;;4.07;;
52952;SDS011;38815;55.932;-3.232;2022-09-03T18:44:14;16.60;;;4.38;;
52952;SDS011;38815;55.932;-3.232;2022-09-03T18:53:08;14.48;;;3.85;;
52952;SDS011;38815;55.932;-3.232;2022-09-03T18:56:19;12.27;;;3.53;;
52952;SDS011;38815;55.932;-3.232;2022-09-03T19:05:39;15.68;;;4.45;;
52952;SDS011;38815;55.932;-3.232;2022-09-03T19:08:35;14.32;;;3.80;;
52952;SDS011;38815;55.932;-3.232;2022-09-03T19:11:30;16.27;;;4.28;;
52952;SDS011;38815;55.932;-3.232;2022-09-03T19:20:04;16.25;;;4.82;;
52952;SDS011;38815;55.932;-3.232;2022-09-03T19:23:04;16.02;;;4.18;;
52952;SDS011;38815;55.932;-3.232;2022-09-03T19:25:48;12.85;;;4.32;;
52952;SDS011;38815;55.932;-3.232;2022-09-03T19:28:38;13.20;;;3.88;;
52952;SDS011;38815;55.932;-3.232;2022-09-03T19:31:42;15.35;;;4.35;;
52952;SDS011;38815;55.932;-3.232;2022-09-03T19:55:43;15.82;;;4.38;;
52952;SDS011;38815;55.932;-3.232;2022-09-03T19:58:29;13.38;;;3.70;;
52952;SDS011;38815;55.932;-3.232;2022-09-03T20:01:16;16.02;;;4.88;;
52952;SDS011;38815;55.932;-3.232;2022-09-03T20:04:05;15.35;;;4.18;;
52952;SDS011;38815;55.932;-3.232;2022-09-03T20:06:56;11.02;;;3.85;;
52952;SDS011;38815;55.932;-3.232;2022-09-03T20:09:42;11.00;;;3.38;;
52952;SDS011;38815;55.932;-3.232;2022-09-03T20:12:28;12.82;;;4.05;;
52952;SDS011;38815;55.932;-3.232;2022-09-03T20:15:02;10.73;;;3.65;;
52952;SDS011;38815;55.932;-3.232;2022-09-03T20:17:35;11.95;;;3.55;;
52952;SDS011;38815;55.932;-3.232;2022-09-03T20:20:23;9.68;;;3.33;;
52952;SDS011;38815;55.932;-3.232;2022-09-03T20:23:03;13.23;;;3.78;;
52952;SDS011;38815;55.932;-3.232;2022-09-03T21:00:43;13.65;;;4.15;;
52952;SDS011;38815;55.932;-3.232;2022-09-03T21:03:39;14.15;;;3.83;;
52952;SDS011;38815;55.932;-3.232;2022-09-03T21:06:28;14.60;;;4.40;;
52952;SDS011;38815;55.932;-3.232;2022-09-03T21:14:39;14.57;;;3.97;;
52952;SDS011;38815;55.932;-3.232;2022-09-03T21:22:32;15.70;;;4.30;;
52952;SDS011;38815;55.932;-3.232;2022-09-03T21:25:11;14.00;;;4.00;;
52952;SDS011;38815;55.932;-3.232;2022-09-03T21:30:46;14.75;;;4.00;;